Time;durP1;ratioP1;P1;durP2;ratioP2;P2;SDS_P1;SDS_P2;PMS_P1;PMS_P2;Temp;Humidity;BMP_temperature;BMP_pressure;BME280_temperature;BME280_humidity;BME280_pressure;Samples;Min_cycle;Max_cycle;Signal;HPM_P1;HPM_P2
2023/12/08 05:16:57;;;;;;;;;51.00;42.00;;;;;;;;6487843;47;15980;-60
2023/12/08 05:23:01;;;;;;;;;53.75;46.50;;;;;;;;6491150;47;8863;-59
2023/12/08 05:29:03;;;;;;;;;57.75;46.00;;;;;;;;6491603;47;8989;-59
2023/12/08 05:35:06;;;;;;;;;65.67;54.33;;;;;;;;6489234;31;8963;-59
2023/12/08 05:41:09;;;;;;;;;63.25;49.25;;;;;;;;6490408;47;8894;-60
2023/12/08 05:47:12;;;;;;;;;63.33;52.33;;;;;;;;6491700;39;9573;-60
2023/12/08 05:53:14;;;;;;;;;63.00;46.00;;;;;;;;6491213;39;8910;-60
2023/12/08 05:59:16;;;;;;;;;59.33;47.00;;;;;;;;6492705;31;8833;-61
2023/12/08 06:05:19;;;;;;;;;63.50;49.50;;;;;;;;6491495;31;9650;-60
2023/12/08 06:11:22;;;;;;;;;67.75;51.75;;;;;;;;6490500;39;9470;-59
2023/12/08 06:17:27;;;;;;;;;58.50;47.00;;;;;;;;6491413;39;8948;-60
2023/12/08 06:23:34;;;;;;;;;61.00;50.75;;;;;;;;6492793;31;8919;-61
2023/12/08 06:29:39;;;;;;;;;64.00;53.50;;;;;;;;6493991;39;8855;-60
2023/12/08 06:35:43;;;;;;;;;62.75;50.00;;;;;;;;6491854;39;8911;-60
2023/12/08 06:41:48;;;;;;;;;73.50;55.50;;;;;;;;6485415;39;8894;-59
2023/12/08 06:47:53;;;;;;;;;74.33;56.00;;;;;;;;6488472;39;9022;-60
2023/12/08 06:54:02;;;;;;;;;56.00;48.50;;;;;;;;6492055;31;8902;-60
2023/12/08 07:00:10;;;;;;;;;74.50;57.75;;;;;;;;6493018;39;8844;-60
2023/12/08 07:06:13;;;;;;;;;66.75;56.00;;;;;;;;6491812;39;8922;-61
2023/12/08 07:12:16;;;;;;;;;71.67;54.00;;;;;;;;6488534;39;8952;-60
2023/12/08 07:18:18;;;;;;;;;65.33;52.00;;;;;;;;6490469;39;8970;-60
2023/12/08 07:24:22;;;;;;;;;67.00;53.00;;;;;;;;6489098;39;9004;-62
2023/12/08 07:30:24;;;;;;;;;69.00;53.00;;;;;;;;6476606;39;8914;-60
2023/12/08 07:36:30;;;;;;;;;71.00;57.67;;;;;;;;6458506;39;9025;-60
2023/12/08 07:42:33;;;;;;;;;72.00;56.00;;;;;;;;6434137;39;9074;-61
2023/12/08 07:48:35;;;;;;;;;88.33;66.67;;;;;;;;6483940;39;8961;-62
2023/12/08 07:54:40;;;;;;;;;68.33;53.33;;;;;;;;6468602;46;8913;-62
2023/12/08 08:00:47;;;;;;;;;68.50;56.00;;;;;;;;6468351;39;8978;-63
2023/12/08 08:06:50;;;;;;;;;75.67;56.67;;;;;;;;6465443;46;8949;-60
2023/12/08 08:12:54;;;;;;;;;78.00;60.67;;;;;;;;6469728;31;9012;-66
2023/12/08 08:18:57;;;;;;;;;73.67;58.00;;;;;;;;6491345;39;8885;-64
2023/12/08 08:25:04;;;;;;;;;49.00;42.50;;;;;;;;6491594;39;9624;-64
2023/12/08 08:31:09;;;;;;;;;77.33;63.00;;;;;;;;6491155;39;9538;-64
2023/12/08 08:37:13;;;;;;;;;74.33;55.33;;;;;;;;6490947;39;9064;-65
2023/12/08 08:43:19;;;;;;;;;77.33;59.33;;;;;;;;6489580;39;9564;-65
2023/12/08 08:49:28;;;;;;;;;83.67;62.33;;;;;;;;6489699;31;9048;-64
2023/12/08 08:55:34;;;;;;;;;74.50;58.00;;;;;;;;6489992;39;8956;-65
2023/12/08 09:01:38;;;;;;;;;68.25;56.50;;;;;;;;6490803;39;8904;-64
2023/12/08 09:07:42;;;;;;;;;71.50;58.75;;;;;;;;6489860;31;8941;-65
2023/12/08 09:13:45;;;;;;;;;78.00;62.25;;;;;;;;6488429;39;9037;-65
2023/12/08 09:19:51;;;;;;;;;67.25;56.25;;;;;;;;6489228;39;8881;-63
2023/12/08 09:25:54;;;;;;;;;69.25;56.50;;;;;;;;6489542;39;8887;-64
2023/12/08 09:31:58;;;;;;;;;80.25;61.25;;;;;;;;6489149;39;9666;-64
2023/12/08 09:38:05;;;;;;;;;76.75;60.00;;;;;;;;6488298;39;8969;-64
2023/12/08 09:44:13;;;;;;;;;80.00;61.00;;;;;;;;6488470;39;9562;-62
2023/12/08 09:50:18;;;;;;;;;68.00;57.75;;;;;;;;6487594;39;8926;-64
2023/12/08 09:56:23;;;;;;;;;73.25;58.00;;;;;;;;6488656;46;8921;-62
2023/12/08 10:02:31;;;;;;;;;81.00;62.25;;;;;;;;6490445;39;8938;-63
2023/12/08 10:08:34;;;;;;;;;77.50;60.75;;;;;;;;6490233;39;9587;-62
2023/12/08 10:14:51;;;;;;;;;78.25;61.75;;;;;;;;6489288;39;8923;-62
2023/12/08 10:21:12;;;;;;;;;79.75;60.00;;;;;;;;6489532;46;8891;-64
2023/12/08 10:27:18;;;;;;;;;76.75;57.00;;;;;;;;6488309;46;8963;-62
2023/12/08 10:33:25;;;;;;;;;87.25;63.00;;;;;;;;6487670;39;8977;-63
2023/12/08 10:39:30;;;;;;;;;79.33;60.67;;;;;;;;6489996;39;9062;-64
2023/12/08 10:45:36;;;;;;;;;76.00;57.33;;;;;;;;6490691;31;8949;-65
2023/12/08 10:51:48;;;;;;;;;72.67;57.67;;;;;;;;6488672;39;9037;-64
2023/12/08 10:57:56;;;;;;;;;79.33;63.33;;;;;;;;6487100;39;8952;-63
2023/12/08 11:04:04;;;;;;;;;74.67;57.33;;;;;;;;6488328;39;8939;-66
2023/12/08 11:10:13;;;;;;;;;80.67;64.67;;;;;;;;6489293;39;8958;-63
2023/12/08 11:16:54;;;;;;;;;71.00;55.33;;;;;;;;6490045;46;8903;-64
2023/12/08 11:23:00;;;;;;;;;67.50;54.50;;;;;;;;6489781;39;9363;-63
2023/12/08 11:29:30;;;;;;;;;72.67;58.33;;;;;;;;6489973;39;9644;-64
2023/12/08 11:35:33;;;;;;;;;74.67;60.00;;;;;;;;6488129;46;8970;-64
2023/12/08 11:41:37;;;;;;;;;77.00;58.75;;;;;;;;6489243;39;8980;-65
2023/12/08 11:47:42;;;;;;;;;78.25;63.00;;;;;;;;6489875;39;8949;-67
2023/12/08 11:53:55;;;;;;;;;72.50;59.25;;;;;;;;6488213;39;8914;-67
2023/12/08 11:59:59;;;;;;;;;67.75;56.75;;;;;;;;6488688;39;9146;-67
2023/12/08 12:06:11;;;;;;;;;70.00;56.50;;;;;;;;6487966;39;8996;-64
2023/12/08 12:12:24;;;;;;;;;68.25;55.75;;;;;;;;6487454;46;8940;-65
2023/12/08 12:18:30;;;;;;;;;71.25;56.50;;;;;;;;6487724;39;8990;-61
2023/12/08 12:24:34;;;;;;;;;71.25;55.00;;;;;;;;6489185;31;8965;-64
2023/12/08 12:30:37;;;;;;;;;71.25;55.50;;;;;;;;6489169;39;8901;-66
2023/12/08 12:36:41;;;;;;;;;72.00;57.25;;;;;;;;6488136;39;9315;-63
2023/12/08 12:42:48;;;;;;;;;71.50;57.75;;;;;;;;6488629;39;8927;-63
2023/12/08 12:48:53;;;;;;;;;75.25;59.25;;;;;;;;6489320;39;9608;-65
2023/12/08 12:54:57;;;;;;;;;73.25;56.00;;;;;;;;6486610;39;8918;-62
2023/12/08 13:01:11;;;;;;;;;77.50;60.25;;;;;;;;6488097;46;9101;-66
2023/12/08 13:07:14;;;;;;;;;75.50;57.25;;;;;;;;6468081;31;8985;-65
2023/12/08 13:13:17;;;;;;;;;78.50;60.25;;;;;;;;6487965;39;8928;-63
2023/12/08 13:19:19;;;;;;;;;80.00;59.50;;;;;;;;6485083;39;8923;-65
2023/12/08 13:25:26;;;;;;;;;69.50;57.00;;;;;;;;6482797;39;8979;-65
2023/12/08 13:31:29;;;;;;;;;72.75;55.25;;;;;;;;6481266;39;9112;-62
2023/12/08 13:37:36;;;;;;;;;62.00;48.00;;;;;;;;6487361;47;8930;-62
2023/12/08 13:43:38;;;;;;;;;69.75;57.00;;;;;;;;6488450;31;8906;-64
2023/12/08 13:49:47;;;;;;;;;72.00;54.25;;;;;;;;6488217;39;9567;-62
2023/12/08 13:55:51;;;;;;;;;74.00;57.00;;;;;;;;6489109;39;9558;-63
2023/12/08 14:01:53;;;;;;;;;71.33;55.33;;;;;;;;6488419;47;8927;-62
2023/12/08 14:07:58;;;;;;;;;70.67;56.67;;;;;;;;6489002;39;9017;-64
2023/12/08 14:14:03;;;;;;;;;71.00;55.00;;;;;;;;6489010;39;8840;-64
2023/12/08 14:20:06;;;;;;;;;67.00;53.50;;;;;;;;6488498;47;8936;-64
2023/12/08 14:26:09;;;;;;;;;64.50;49.75;;;;;;;;6488571;39;8916;-62
2023/12/08 14:32:18;;;;;;;;;71.33;55.67;;;;;;;;6487480;47;9038;-64
2023/12/08 14:38:25;;;;;;;;;61.25;49.50;;;;;;;;6532762;36;8975;-64
2023/12/08 14:44:28;;;;;;;;;65.25;47.50;;;;;;;;6491638;39;9751;-64
2023/12/08 14:50:31;;;;;;;;;61.50;50.00;;;;;;;;6310237;39;10000847;-64
2023/12/08 14:56:40;;;;;;;;;70.50;53.75;;;;;;;;6490358;39;9534;-63
2023/12/08 15:02:43;;;;;;;;;58.25;50.25;;;;;;;;6490896;39;10021;-61
2023/12/08 15:08:47;;;;;;;;;52.25;45.75;;;;;;;;6489396;46;8923;-61
2023/12/08 15:14:49;;;;;;;;;67.00;51.00;;;;;;;;6491205;39;8869;-61
2023/12/08 15:20:54;;;;;;;;;65.50;50.75;;;;;;;;6490665;39;9448;-62
2023/12/08 15:26:57;;;;;;;;;67.25;52.50;;;;;;;;6490852;39;8917;-61
2023/12/08 15:32:59;;;;;;;;;70.75;53.25;;;;;;;;6490559;46;8875;-61
2023/12/08 15:39:03;;;;;;;;;56.75;48.25;;;;;;;;6490389;31;8985;-61
2023/12/08 15:45:06;;;;;;;;;62.50;51.75;;;;;;;;6490241;39;9627;-60
2023/12/08 15:51:11;;;;;;;;;71.25;55.50;;;;;;;;6490391;39;8872;-62
2023/12/08 15:57:14;;;;;;;;;69.00;55.50;;;;;;;;6489694;39;9502;-61
2023/12/08 16:03:17;;;;;;;;;71.00;53.00;;;;;;;;6490838;31;8884;-61
2023/12/08 16:09:20;;;;;;;;;72.75;56.75;;;;;;;;6490588;39;8894;-61
2023/12/08 16:15:22;;;;;;;;;66.75;53.75;;;;;;;;6490003;46;8881;-60
2023/12/08 16:21:26;;;;;;;;;70.00;54.00;;;;;;;;6490145;46;8854;-61
2023/12/08 16:27:29;;;;;;;;;66.50;50.00;;;;;;;;6399021;39;5002329;-60
2023/12/08 16:33:34;;;;;;;;;65.00;50.50;;;;;;;;6490922;39;8909;-62
2023/12/08 16:39:37;;;;;;;;;63.50;48.50;;;;;;;;6489863;39;8899;-61
2023/12/08 16:45:39;;;;;;;;;50.25;47.00;;;;;;;;6489991;39;9043;-61
2023/12/08 16:51:41;;;;;;;;;59.25;47.75;;;;;;;;6489874;39;9446;-60
2023/12/08 16:57:45;;;;;;;;;63.00;50.00;;;;;;;;6489051;46;8878;-61
2023/12/08 17:03:49;;;;;;;;;65.50;50.00;;;;;;;;6487825;46;8920;-59
2023/12/08 17:09:52;;;;;;;;;64.00;53.50;;;;;;;;6489579;46;8885;-61
2023/12/08 17:15:54;;;;;;;;;68.25;51.00;;;;;;;;6489518;46;8906;-59
2023/12/08 17:21:57;;;;;;;;;68.25;53.25;;;;;;;;6488834;46;8935;-60
2023/12/08 17:28:01;;;;;;;;;58.50;47.25;;;;;;;;6489729;47;8910;-61
2023/12/08 17:34:03;;;;;;;;;61.00;50.75;;;;;;;;6490234;39;8893;-61
2023/12/08 17:40:19;;;;;;;;;66.50;49.50;;;;;;;;6489010;31;8894;-60
2023/12/08 17:46:21;;;;;;;;;64.00;49.75;;;;;;;;6489235;39;9062;-60
2023/12/08 17:52:24;;;;;;;;;57.50;48.50;;;;;;;;6489586;31;8886;-59
2023/12/08 17:58:26;;;;;;;;;58.00;50.25;;;;;;;;6490393;39;8951;-60
2023/12/08 18:04:29;;;;;;;;;67.25;54.75;;;;;;;;6489206;39;8855;-59
2023/12/08 18:10:31;;;;;;;;;69.25;51.75;;;;;;;;6488803;39;8916;-61
2023/12/08 18:16:37;;;;;;;;;64.00;52.50;;;;;;;;6490933;39;8925;-60
2023/12/08 18:22:40;;;;;;;;;65.75;53.25;;;;;;;;6490195;46;8900;-60
2023/12/08 18:28:43;;;;;;;;;65.00;51.50;;;;;;;;6491583;39;8968;-61
2023/12/08 18:35:06;;;;;;;;;67.75;53.25;;;;;;;;6536631;36;8837;-59
2023/12/08 18:41:08;;;;;;;;;68.25;55.00;;;;;;;;6491633;39;8835;-62
2023/12/08 18:47:11;;;;;;;;;73.50;57.50;;;;;;;;6491094;39;9035;-60
2023/12/08 18:53:13;;;;;;;;;78.50;60.25;;;;;;;;6491012;39;8961;-61
2023/12/08 18:59:15;;;;;;;;;71.00;56.50;;;;;;;;6490862;39;8913;-61
2023/12/08 19:05:19;;;;;;;;;61.25;51.25;;;;;;;;6490491;39;8909;-61
2023/12/08 19:11:21;;;;;;;;;71.25;57.25;;;;;;;;6490586;39;8900;-61
2023/12/08 19:17:23;;;;;;;;;56.00;44.25;;;;;;;;6491440;31;8847;-60
2023/12/08 19:23:27;;;;;;;;;74.00;56.25;;;;;;;;6490876;39;8841;-61
2023/12/08 19:29:31;;;;;;;;;70.00;55.25;;;;;;;;6490828;39;8854;-58
2023/12/08 19:35:34;;;;;;;;;67.00;53.25;;;;;;;;6490702;39;8996;-62
2023/12/08 19:41:36;;;;;;;;;73.67;58.00;;;;;;;;6489756;39;8897;-61
2023/12/08 19:47:39;;;;;;;;;64.75;51.50;;;;;;;;6490950;39;8919;-62
2023/12/08 19:53:44;;;;;;;;;65.25;51.75;;;;;;;;6490988;39;8882;-59
2023/12/08 19:59:50;;;;;;;;;67.75;52.00;;;;;;;;6491046;39;8959;-59
2023/12/08 20:05:52;;;;;;;;;56.00;47.75;;;;;;;;6490511;46;8890;-62
2023/12/08 20:11:54;;;;;;;;;78.25;59.50;;;;;;;;6490193;46;8856;-60
2023/12/08 20:17:57;;;;;;;;;77.50;63.00;;;;;;;;6490295;46;8815;-59
2023/12/08 20:24:00;;;;;;;;;80.33;61.33;;;;;;;;6490612;39;8891;-59
2023/12/08 20:30:05;;;;;;;;;77.67;61.67;;;;;;;;6490395;46;8887;-59
2023/12/08 20:36:07;;;;;;;;;77.00;61.67;;;;;;;;6489827;39;8892;-59
2023/12/08 20:42:10;;;;;;;;;81.00;60.00;;;;;;;;6490330;39;8945;-60
2023/12/08 20:48:13;;;;;;;;;76.00;62.33;;;;;;;;6491014;39;9528;-59
2023/12/08 20:54:16;;;;;;;;;71.33;57.33;;;;;;;;6490427;39;8844;-60
2023/12/08 21:00:19;;;;;;;;;67.67;49.00;;;;;;;;6489807;39;9106;-59
2023/12/08 21:06:22;;;;;;;;;82.00;61.33;;;;;;;;6488764;31;9140;-62
2023/12/08 21:12:25;;;;;;;;;81.00;61.00;;;;;;;;6490130;39;8884;-60
2023/12/08 21:18:27;;;;;;;;;71.67;57.33;;;;;;;;6489554;39;8898;-61
2023/12/08 21:24:30;;;;;;;;;74.00;59.33;;;;;;;;6489023;46;8857;-61
2023/12/08 21:30:32;;;;;;;;;75.00;55.33;;;;;;;;6489212;39;8932;-59
2023/12/08 21:36:36;;;;;;;;;71.67;52.33;;;;;;;;6489842;39;9048;-59
2023/12/08 21:42:51;;;;;;;;;73.33;57.33;;;;;;;;6489367;39;9086;-60
2023/12/08 21:48:56;;;;;;;;;69.33;54.67;;;;;;;;6489956;31;8936;-59
2023/12/08 21:54:58;;;;;;;;;67.67;55.33;;;;;;;;6491766;39;9589;-59
2023/12/08 22:01:01;;;;;;;;;77.67;59.00;;;;;;;;6491569;39;8916;-60
2023/12/08 22:07:08;;;;;;;;;71.75;58.00;;;;;;;;6491526;39;8887;-59
2023/12/08 22:13:11;;;;;;;;;71.00;56.67;;;;;;;;6490858;46;8910;-59
2023/12/08 22:19:15;;;;;;;;;70.33;57.67;;;;;;;;6490976;46;8920;-60
2023/12/08 22:25:18;;;;;;;;;71.00;50.00;;;;;;;;6491047;39;8992;-59
2023/12/08 22:31:21;;;;;;;;;72.75;58.25;;;;;;;;6490764;39;8868;-60
2023/12/08 22:37:23;;;;;;;;;65.00;50.50;;;;;;;;6490854;39;8825;-59
2023/12/08 22:43:26;;;;;;;;;75.00;59.33;;;;;;;;6492189;31;8911;-60
2023/12/08 22:49:30;;;;;;;;;74.33;59.00;;;;;;;;6491337;39;8960;-60
2023/12/08 22:55:36;;;;;;;;;73.75;56.75;;;;;;;;6490878;39;9532;-59
2023/12/08 23:01:39;;;;;;;;;69.00;57.00;;;;;;;;6490420;46;8888;-59
2023/12/08 23:07:43;;;;;;;;;77.25;58.50;;;;;;;;6491218;31;8911;-59
2023/12/08 23:13:48;;;;;;;;;79.33;60.00;;;;;;;;6490296;46;9003;-59
2023/12/08 23:19:50;;;;;;;;;75.00;59.33;;;;;;;;6490723;39;8886;-60
2023/12/08 23:25:54;;;;;;;;;74.00;55.67;;;;;;;;6491075;31;8885;-60
2023/12/08 23:31:58;;;;;;;;;67.25;56.00;;;;;;;;6490951;46;8903;-60
2023/12/08 23:38:00;;;;;;;;;70.00;54.25;;;;;;;;6490357;31;8857;-59
2023/12/08 23:44:06;;;;;;;;;74.67;56.00;;;;;;;;6490811;39;8982;-61
2023/12/08 23:50:10;;;;;;;;;66.25;54.75;;;;;;;;6490045;39;8954;-60
2023/12/08 23:56:13;;;;;;;;;64.50;51.50;;;;;;;;6490997;39;8868;-60
